RS-0009 weather

Banjički Vis Heliport
Beograd (city), Serbia

Public forecast

Using degrees Celsius for public forecast. Weather courtesy of forecast.io.

METAR (pilot weather report)

Closest report is Belgrade Nikola Tesla Airport, 7.7 nm (14.2 km) WNW. Retrieved 2019/09/21 18:30 UTC (19 minutes ago):

LYBE 211830Z 04004KT CAVOK 15/02 Q1025 NOSIG

TAF (pilot weather forecast)

Closest forecast is Belgrade Nikola Tesla Airport, 7.7 nm (14.2 km) WNW. Retrieved 2019/09/21 18:21 UTC (28 minutes ago):

TAF LYBE 211700Z 2118/2218 08007KT CAVOK TX24/2213Z TN07/2204Z